sensor_id;sensor_type;location;lat;lon;timestamp;P1;durP1;ratioP1;P2;durP2;ratioP2
13807;SDS011;40769;51.512;5.494;2024-03-23T15:10:33;4.38;;;1.90;;
13807;SDS011;40769;51.512;5.494;2024-03-23T15:12:59;2.63;;;1.85;;
13807;SDS011;40769;51.512;5.494;2024-03-23T15:15:24;2.20;;;1.25;;
13807;SDS011;40769;51.512;5.494;2024-03-23T15:17:50;2.60;;;1.48;;
13807;SDS011;40769;51.512;5.494;2024-03-23T15:20:16;3.30;;;1.23;;
13807;SDS011;40769;51.512;5.494;2024-03-23T15:22:42;3.40;;;1.63;;
13807;SDS011;40769;51.512;5.494;2024-03-23T15:25:07;1.95;;;1.38;;
13807;SDS011;40769;51.512;5.494;2024-03-23T15:27:33;2.58;;;1.58;;
13807;SDS011;40769;51.512;5.494;2024-03-23T15:29:59;2.75;;;1.45;;
13807;SDS011;40769;51.512;5.494;2024-03-23T15:32:24;2.40;;;1.13;;
13807;SDS011;40769;51.512;5.494;2024-03-23T15:34:50;3.40;;;1.10;;
13807;SDS011;40769;51.512;5.494;2024-03-23T15:37:17;2.65;;;1.00;;
13807;SDS011;40769;51.512;5.494;2024-03-23T15:39:42;2.50;;;1.00;;
13807;SDS011;40769;51.512;5.494;2024-03-23T15:42:08;2.17;;;1.20;;
13807;SDS011;40769;51.512;5.494;2024-03-23T15:44:35;2.00;;;1.40;;
13807;SDS011;40769;51.512;5.494;2024-03-23T15:47:00;3.25;;;1.33;;
13807;SDS011;40769;51.512;5.494;2024-03-23T15:49:26;2.13;;;1.10;;
13807;SDS011;40769;51.512;5.494;2024-03-23T15:51:52;2.35;;;1.30;;
13807;SDS011;40769;51.512;5.494;2024-03-23T15:54:18;2.00;;;1.30;;
13807;SDS011;40769;51.512;5.494;2024-03-23T15:56:44;3.75;;;1.38;;
13807;SDS011;40769;51.512;5.494;2024-03-23T15:59:09;0.80;;;0.70;;
13807;SDS011;40769;51.512;5.494;2024-03-23T16:01:35;1.75;;;1.00;;
13807;SDS011;40769;51.512;5.494;2024-03-23T16:04:02;2.22;;;1.38;;
13807;SDS011;40769;51.512;5.494;2024-03-23T16:06:28;2.80;;;1.30;;
13807;SDS011;40769;51.512;5.494;2024-03-23T16:08:53;1.80;;;1.10;;
13807;SDS011;40769;51.512;5.494;2024-03-23T16:11:19;1.75;;;1.52;;
13807;SDS011;40769;51.512;5.494;2024-03-23T16:13:45;2.85;;;1.73;;
13807;SDS011;40769;51.512;5.494;2024-03-23T16:16:11;2.53;;;1.30;;
13807;SDS011;40769;51.512;5.494;2024-03-23T16:18:37;2.35;;;1.40;;
13807;SDS011;40769;51.512;5.494;2024-03-23T16:21:06;2.55;;;1.88;;
13807;SDS011;40769;51.512;5.494;2024-03-23T16:23:36;2.80;;;2.47;;
13807;SDS011;40769;51.512;5.494;2024-03-23T16:26:06;5.95;;;3.50;;
13807;SDS011;40769;51.512;5.494;2024-03-23T16:28:32;4.35;;;2.92;;
13807;SDS011;40769;51.512;5.494;2024-03-23T16:31:02;3.72;;;2.75;;
13807;SDS011;40769;51.512;5.494;2024-03-23T16:33:32;3.58;;;2.85;;
13807;SDS011;40769;51.512;5.494;2024-03-23T16:36:02;3.50;;;2.50;;
13807;SDS011;40769;51.512;5.494;2024-03-23T16:38:37;3.22;;;2.67;;
13807;SDS011;40769;51.512;5.494;2024-03-23T16:43:33;4.97;;;2.80;;
13807;SDS011;40769;51.512;5.494;2024-03-23T16:46:00;3.85;;;3.35;;
13807;SDS011;40769;51.512;5.494;2024-03-23T16:48:27;5.35;;;3.00;;
13807;SDS011;40769;51.512;5.494;2024-03-23T16:50:53;4.20;;;2.53;;
13807;SDS011;40769;51.512;5.494;2024-03-23T16:53:22;3.00;;;2.70;;
13807;SDS011;40769;51.512;5.494;2024-03-23T16:55:55;3.80;;;3.10;;
13807;SDS011;40769;51.512;5.494;2024-03-23T16:58:32;5.45;;;3.25;;
13807;SDS011;40769;51.512;5.494;2024-03-23T17:01:06;4.35;;;2.83;;
13807;SDS011;40769;51.512;5.494;2024-03-23T17:03:37;3.85;;;2.70;;
13807;SDS011;40769;51.512;5.494;2024-03-23T17:06:06;3.95;;;2.47;;
13807;SDS011;40769;51.512;5.494;2024-03-23T17:08:35;4.70;;;3.45;;
13807;SDS011;40769;51.512;5.494;2024-03-23T17:11:01;4.78;;;4.13;;
13807;SDS011;40769;51.512;5.494;2024-03-23T17:13:30;4.22;;;3.83;;
13807;SDS011;40769;51.512;5.494;2024-03-23T17:15:56;4.95;;;4.45;;
13807;SDS011;40769;51.512;5.494;2024-03-23T17:18:22;4.57;;;3.97;;
13807;SDS011;40769;51.512;5.494;2024-03-23T17:20:48;4.85;;;4.05;;
13807;SDS011;40769;51.512;5.494;2024-03-23T17:23:13;4.32;;;3.78;;
13807;SDS011;40769;51.512;5.494;2024-03-23T17:25:48;4.97;;;4.30;;
13807;SDS011;40769;51.512;5.494;2024-03-23T17:28:14;4.97;;;3.88;;
13807;SDS011;40769;51.512;5.494;2024-03-23T17:30:40;5.45;;;4.07;;
13807;SDS011;40769;51.512;5.494;2024-03-23T17:33:07;4.68;;;3.60;;
13807;SDS011;40769;51.512;5.494;2024-03-23T17:35:32;3.63;;;3.08;;
13807;SDS011;40769;51.512;5.494;2024-03-23T17:37:58;3.80;;;2.97;;
13807;SDS011;40769;51.512;5.494;2024-03-23T17:40:24;6.18;;;3.58;;
13807;SDS011;40769;51.512;5.494;2024-03-23T17:42:50;4.88;;;3.38;;
13807;SDS011;40769;51.512;5.494;2024-03-23T17:45:16;5.32;;;3.65;;
13807;SDS011;40769;51.512;5.494;2024-03-23T17:47:43;5.82;;;3.47;;
13807;SDS011;40769;51.512;5.494;2024-03-23T17:50:09;4.15;;;3.15;;
13807;SDS011;40769;51.512;5.494;2024-03-23T17:52:37;6.78;;;3.70;;
13807;SDS011;40769;51.512;5.494;2024-03-23T17:55:06;4.47;;;3.15;;
13807;SDS011;40769;51.512;5.494;2024-03-23T17:57:32;4.70;;;3.55;;
13807;SDS011;40769;51.512;5.494;2024-03-23T17:59:57;4.20;;;3.22;;
13807;SDS011;40769;51.512;5.494;2024-03-23T18:02:23;4.45;;;3.55;;
13807;SDS011;40769;51.512;5.494;2024-03-23T18:04:51;4.30;;;3.55;;
13807;SDS011;40769;51.512;5.494;2024-03-23T18:07:18;4.32;;;3.42;;
13807;SDS011;40769;51.512;5.494;2024-03-23T18:09:44;4.47;;;3.10;;
13807;SDS011;40769;51.512;5.494;2024-03-23T18:12:11;4.32;;;3.25;;
13807;SDS011;40769;51.512;5.494;2024-03-23T18:14:37;3.63;;;3.00;;
13807;SDS011;40769;51.512;5.494;2024-03-23T18:17:03;4.40;;;2.50;;
13807;SDS011;40769;51.512;5.494;2024-03-23T18:19:29;3.35;;;2.75;;
13807;SDS011;40769;51.512;5.494;2024-03-23T18:21:55;5.47;;;2.85;;
13807;SDS011;40769;51.512;5.494;2024-03-23T18:24:21;3.60;;;2.75;;
13807;SDS011;40769;51.512;5.494;2024-03-23T18:26:48;3.78;;;2.75;;
13807;SDS011;40769;51.512;5.494;2024-03-23T18:29:14;4.32;;;3.08;;
13807;SDS011;40769;51.512;5.494;2024-03-23T18:31:41;5.97;;;3.45;;
13807;SDS011;40769;51.512;5.494;2024-03-23T18:34:06;4.93;;;3.28;;
13807;SDS011;40769;51.512;5.494;2024-03-23T18:36:32;4.28;;;3.17;;
13807;SDS011;40769;51.512;5.494;2024-03-23T18:38:58;4.03;;;2.80;;
13807;SDS011;40769;51.512;5.494;2024-03-23T18:41:27;4.30;;;3.90;;
13807;SDS011;40769;51.512;5.494;2024-03-23T18:43:54;7.32;;;5.30;;
13807;SDS011;40769;51.512;5.494;2024-03-23T18:46:20;7.10;;;5.43;;
13807;SDS011;40769;51.512;5.494;2024-03-23T18:48:45;5.47;;;4.55;;
13807;SDS011;40769;51.512;5.494;2024-03-23T18:51:11;6.38;;;4.93;;
13807;SDS011;40769;51.512;5.494;2024-03-23T18:53:37;5.07;;;4.38;;
13807;SDS011;40769;51.512;5.494;2024-03-23T18:56:02;5.97;;;4.57;;
13807;SDS011;40769;51.512;5.494;2024-03-23T18:58:29;5.60;;;4.85;;
13807;SDS011;40769;51.512;5.494;2024-03-23T19:00:58;4.65;;;4.18;;
13807;SDS011;40769;51.512;5.494;2024-03-23T19:03:28;6.25;;;5.18;;
13807;SDS011;40769;51.512;5.494;2024-03-23T19:05:58;5.28;;;4.78;;
13807;SDS011;40769;51.512;5.494;2024-03-23T19:08:25;4.28;;;3.88;;
13807;SDS011;40769;51.512;5.494;2024-03-23T19:10:54;4.70;;;4.20;;
13807;SDS011;40769;51.512;5.494;2024-03-23T19:13:25;5.78;;;5.20;;
13807;SDS011;40769;51.512;5.494;2024-03-23T19:15:51;8.80;;;7.80;;
13807;SDS011;40769;51.512;5.494;2024-03-23T19:18:17;9.20;;;6.75;;
13807;SDS011;40769;51.512;5.494;2024-03-23T19:20:43;8.20;;;6.03;;
13807;SDS011;40769;51.512;5.494;2024-03-23T19:23:18;6.47;;;5.30;;
13807;SDS011;40769;51.512;5.494;2024-03-23T19:25:50;6.00;;;5.38;;
13807;SDS011;40769;51.512;5.494;2024-03-23T19:28:17;7.35;;;5.80;;
13807;SDS011;40769;51.512;5.494;2024-03-23T19:30:43;8.77;;;7.88;;
13807;SDS011;40769;51.512;5.494;2024-03-23T19:33:08;8.50;;;7.43;;
13807;SDS011;40769;51.512;5.494;2024-03-23T19:35:34;7.70;;;6.28;;
13807;SDS011;40769;51.512;5.494;2024-03-23T19:37:59;10.57;;;8.35;;
13807;SDS011;40769;51.512;5.494;2024-03-23T19:40:25;6.50;;;5.65;;
13807;SDS011;40769;51.512;5.494;2024-03-23T19:42:50;5.40;;;4.82;;
13807;SDS011;40769;51.512;5.494;2024-03-23T19:45:16;8.70;;;6.95;;
13807;SDS011;40769;51.512;5.494;2024-03-23T19:47:45;7.85;;;6.07;;
13807;SDS011;40769;51.512;5.494;2024-03-23T19:50:10;8.13;;;6.63;;
13807;SDS011;40769;51.512;5.494;2024-03-23T19:52:36;10.43;;;7.20;;
13807;SDS011;40769;51.512;5.494;2024-03-23T19:55:02;8.00;;;5.95;;
13807;SDS011;40769;51.512;5.494;2024-03-23T19:57:28;6.50;;;5.90;;
13807;SDS011;40769;51.512;5.494;2024-03-23T19:59:57;8.18;;;7.15;;
13807;SDS011;40769;51.512;5.494;2024-03-23T20:02:25;8.05;;;6.72;;
13807;SDS011;40769;51.512;5.494;2024-03-23T20:04:51;8.10;;;6.60;;
13807;SDS011;40769;51.512;5.494;2024-03-23T20:07:20;6.63;;;5.68;;
13807;SDS011;40769;51.512;5.494;2024-03-23T20:09:46;8.10;;;5.72;;
13807;SDS011;40769;51.512;5.494;2024-03-23T20:12:11;5.88;;;5.38;;
13807;SDS011;40769;51.512;5.494;2024-03-23T20:14:37;6.85;;;5.68;;
13807;SDS011;40769;51.512;5.494;2024-03-23T20:17:04;6.43;;;5.70;;
13807;SDS011;40769;51.512;5.494;2024-03-23T20:19:29;5.80;;;5.20;;
13807;SDS011;40769;51.512;5.494;2024-03-23T20:21:58;5.43;;;4.78;;
13807;SDS011;40769;51.512;5.494;2024-03-23T20:24:24;5.50;;;4.93;;
13807;SDS011;40769;51.512;5.494;2024-03-23T20:26:50;7.03;;;5.95;;
13807;SDS011;40769;51.512;5.494;2024-03-23T20:29:16;7.28;;;6.57;;
13807;SDS011;40769;51.512;5.494;2024-03-23T20:31:45;8.80;;;7.68;;
13807;SDS011;40769;51.512;5.494;2024-03-23T20:34:14;7.72;;;6.47;;
13807;SDS011;40769;51.512;5.494;2024-03-23T20:36:39;6.10;;;5.50;;
13807;SDS011;40769;51.512;5.494;2024-03-23T20:39:05;5.68;;;4.53;;
13807;SDS011;40769;51.512;5.494;2024-03-23T20:41:31;6.20;;;4.60;;
13807;SDS011;40769;51.512;5.494;2024-03-23T20:43:56;5.30;;;4.88;;
13807;SDS011;40769;51.512;5.494;2024-03-23T20:46:23;7.43;;;6.72;;
13807;SDS011;40769;51.512;5.494;2024-03-23T20:48:48;6.07;;;5.47;;
13807;SDS011;40769;51.512;5.494;2024-03-23T20:51:15;5.25;;;4.75;;
13807;SDS011;40769;51.512;5.494;2024-03-23T20:53:41;4.72;;;4.22;;
13807;SDS011;40769;51.512;5.494;2024-03-23T20:56:07;4.85;;;4.07;;
13807;SDS011;40769;51.512;5.494;2024-03-23T20:58:34;4.43;;;4.03;;
13807;SDS011;40769;51.512;5.494;2024-03-23T21:01:02;6.00;;;4.97;;
13807;SDS011;40769;51.512;5.494;2024-03-23T21:03:28;4.95;;;4.10;;
13807;SDS011;40769;51.512;5.494;2024-03-23T21:05:55;3.67;;;3.17;;
13807;SDS011;40769;51.512;5.494;2024-03-23T21:08:21;3.90;;;3.58;;
13807;SDS011;40769;51.512;5.494;2024-03-23T21:10:50;3.72;;;3.33;;
13807;SDS011;40769;51.512;5.494;2024-03-23T21:13:17;4.85;;;4.03;;
13807;SDS011;40769;51.512;5.494;2024-03-23T21:15:49;4.10;;;3.70;;
13807;SDS011;40769;51.512;5.494;2024-03-23T21:18:16;4.90;;;3.50;;
13807;SDS011;40769;51.512;5.494;2024-03-23T21:20:45;4.90;;;3.60;;
13807;SDS011;40769;51.512;5.494;2024-03-23T21:23:11;3.40;;;3.00;;
13807;SDS011;40769;51.512;5.494;2024-03-23T21:25:38;2.65;;;2.45;;
13807;SDS011;40769;51.512;5.494;2024-03-23T21:28:04;3.20;;;2.50;;
13807;SDS011;40769;51.512;5.494;2024-03-23T21:30:30;5.15;;;3.65;;
13807;SDS011;40769;51.512;5.494;2024-03-23T21:32:58;2.85;;;2.60;;
13807;SDS011;40769;51.512;5.494;2024-03-23T21:35:24;2.45;;;2.03;;
13807;SDS011;40769;51.512;5.494;2024-03-23T21:37:52;2.92;;;2.58;;
13807;SDS011;40769;51.512;5.494;2024-03-23T21:40:17;5.10;;;2.95;;
13807;SDS011;40769;51.512;5.494;2024-03-23T21:42:43;3.22;;;2.70;;
13807;SDS011;40769;51.512;5.494;2024-03-23T21:45:09;3.08;;;2.50;;
13807;SDS011;40769;51.512;5.494;2024-03-23T21:47:35;3.10;;;2.72;;
13807;SDS011;40769;51.512;5.494;2024-03-23T21:50:00;3.75;;;2.92;;
13807;SDS011;40769;51.512;5.494;2024-03-23T21:52:26;5.80;;;3.28;;
13807;SDS011;40769;51.512;5.494;2024-03-23T21:54:52;3.25;;;2.88;;
13807;SDS011;40769;51.512;5.494;2024-03-23T21:57:18;6.18;;;3.50;;
13807;SDS011;40769;51.512;5.494;2024-03-23T21:59:43;4.82;;;3.80;;
13807;SDS011;40769;51.512;5.494;2024-03-23T22:02:09;4.00;;;3.60;;
13807;SDS011;40769;51.512;5.494;2024-03-23T22:04:34;4.35;;;3.50;;
13807;SDS011;40769;51.512;5.494;2024-03-23T22:07:00;3.05;;;2.78;;
13807;SDS011;40769;51.512;5.494;2024-03-23T22:09:26;3.08;;;2.83;;
13807;SDS011;40769;51.512;5.494;2024-03-23T22:11:55;3.42;;;3.10;;
13807;SDS011;40769;51.512;5.494;2024-03-23T22:14:21;4.45;;;3.63;;
13807;SDS011;40769;51.512;5.494;2024-03-23T22:16:47;5.80;;;4.50;;
13807;SDS011;40769;51.512;5.494;2024-03-23T22:19:13;5.45;;;4.47;;
13807;SDS011;40769;51.512;5.494;2024-03-23T22:21:38;5.63;;;3.70;;
13807;SDS011;40769;51.512;5.494;2024-03-23T22:24:04;4.20;;;3.80;;
13807;SDS011;40769;51.512;5.494;2024-03-23T22:26:30;3.22;;;3.00;;
13807;SDS011;40769;51.512;5.494;2024-03-23T22:28:55;4.32;;;3.60;;
13807;SDS011;40769;51.512;5.494;2024-03-23T22:31:21;3.63;;;3.17;;
13807;SDS011;40769;51.512;5.494;2024-03-23T22:33:47;4.50;;;4.00;;
13807;SDS011;40769;51.512;5.494;2024-03-23T22:36:12;5.55;;;4.30;;
13807;SDS011;40769;51.512;5.494;2024-03-23T22:38:38;4.68;;;3.72;;
13807;SDS011;40769;51.512;5.494;2024-03-23T22:41:04;4.85;;;4.10;;
13807;SDS011;40769;51.512;5.494;2024-03-23T22:43:30;4.25;;;3.85;;
13807;SDS011;40769;51.512;5.494;2024-03-23T22:45:58;6.88;;;5.22;;
13807;SDS011;40769;51.512;5.494;2024-03-23T22:48:25;5.88;;;5.05;;
13807;SDS011;40769;51.512;5.494;2024-03-23T22:50:54;5.10;;;4.45;;
13807;SDS011;40769;51.512;5.494;2024-03-23T22:53:21;5.50;;;3.75;;
13807;SDS011;40769;51.512;5.494;2024-03-23T22:55:48;4.03;;;3.42;;
13807;SDS011;40769;51.512;5.494;2024-03-23T22:58:14;4.88;;;4.38;;
13807;SDS011;40769;51.512;5.494;2024-03-23T23:00:41;4.50;;;4.10;;
13807;SDS011;40769;51.512;5.494;2024-03-23T23:03:10;6.68;;;5.07;;
13807;SDS011;40769;51.512;5.494;2024-03-23T23:05:37;4.53;;;4.13;;
13807;SDS011;40769;51.512;5.494;2024-03-23T23:08:04;4.55;;;3.65;;
13807;SDS011;40769;51.512;5.494;2024-03-23T23:10:46;3.78;;;3.47;;
13807;SDS011;40769;51.512;5.494;2024-03-23T23:13:12;4.93;;;3.95;;
13807;SDS011;40769;51.512;5.494;2024-03-23T23:15:38;6.22;;;5.55;;
13807;SDS011;40769;51.512;5.494;2024-03-23T23:18:03;5.90;;;5.30;;
13807;SDS011;40769;51.512;5.494;2024-03-23T23:20:30;6.50;;;5.82;;
13807;SDS011;40769;51.512;5.494;2024-03-23T23:22:59;6.60;;;5.22;;
13807;SDS011;40769;51.512;5.494;2024-03-23T23:25:24;6.30;;;5.70;;
13807;SDS011;40769;51.512;5.494;2024-03-23T23:27:50;7.40;;;6.25;;
13807;SDS011;40769;51.512;5.494;2024-03-23T23:30:18;7.00;;;6.30;;
13807;SDS011;40769;51.512;5.494;2024-03-23T23:32:44;6.05;;;5.20;;
13807;SDS011;40769;51.512;5.494;2024-03-23T23:35:09;8.25;;;6.00;;
13807;SDS011;40769;51.512;5.494;2024-03-23T23:37:37;6.95;;;5.13;;
13807;SDS011;40769;51.512;5.494;2024-03-23T23:40:03;5.65;;;5.05;;
13807;SDS011;40769;51.512;5.494;2024-03-23T23:42:30;5.75;;;5.15;;
13807;SDS011;40769;51.512;5.494;2024-03-23T23:44:57;6.18;;;5.57;;
13807;SDS011;40769;51.512;5.494;2024-03-23T23:47:23;5.65;;;5.15;;
13807;SDS011;40769;51.512;5.494;2024-03-23T23:49:49;5.57;;;4.70;;
13807;SDS011;40769;51.512;5.494;2024-03-23T23:52:14;5.80;;;5.10;;
13807;SDS011;40769;51.512;5.494;2024-03-23T23:54:40;7.13;;;6.43;;
13807;SDS011;40769;51.512;5.494;2024-03-23T23:57:06;6.03;;;5.40;;
13807;SDS011;40769;51.512;5.494;2024-03-23T23:59:34;5.70;;;5.20;;
